sensor_id;sensor_type;location;lat;lon;timestamp;P1;durP1;ratioP1;P2;durP2;ratioP2
64387;SDS011;50709;52.648;4.764;2023-07-31T00:00:10;5.78;;;1.73;;
64387;SDS011;50709;52.648;4.764;2023-07-31T00:02:36;5.93;;;2.17;;
64387;SDS011;50709;52.648;4.764;2023-07-31T00:05:01;6.28;;;1.70;;
64387;SDS011;50709;52.648;4.764;2023-07-31T00:07:27;8.27;;;2.00;;
64387;SDS011;50709;52.648;4.764;2023-07-31T00:09:52;4.63;;;1.70;;
64387;SDS011;50709;52.648;4.764;2023-07-31T00:12:21;4.47;;;1.65;;
64387;SDS011;50709;52.648;4.764;2023-07-31T00:14:47;6.30;;;1.95;;
64387;SDS011;50709;52.648;4.764;2023-07-31T00:17:12;5.30;;;1.63;;
64387;SDS011;50709;52.648;4.764;2023-07-31T00:19:38;5.20;;;1.92;;
64387;SDS011;50709;52.648;4.764;2023-07-31T00:22:03;5.38;;;2.08;;
64387;SDS011;50709;52.648;4.764;2023-07-31T00:24:29;3.25;;;1.70;;
64387;SDS011;50709;52.648;4.764;2023-07-31T00:26:54;7.53;;;2.47;;
64387;SDS011;50709;52.648;4.764;2023-07-31T00:29:19;3.90;;;2.17;;
64387;SDS011;50709;52.648;4.764;2023-07-31T00:31:45;10.10;;;3.10;;
64387;SDS011;50709;52.648;4.764;2023-07-31T00:34:10;6.60;;;3.47;;
64387;SDS011;50709;52.648;4.764;2023-07-31T00:36:36;6.10;;;2.58;;
64387;SDS011;50709;52.648;4.764;2023-07-31T00:39:01;6.30;;;2.42;;
64387;SDS011;50709;52.648;4.764;2023-07-31T00:41:27;7.85;;;2.50;;
64387;SDS011;50709;52.648;4.764;2023-07-31T00:43:52;5.00;;;2.53;;
64387;SDS011;50709;52.648;4.764;2023-07-31T00:46:17;7.70;;;2.50;;
64387;SDS011;50709;52.648;4.764;2023-07-31T00:48:43;6.55;;;3.00;;
64387;SDS011;50709;52.648;4.764;2023-07-31T00:51:08;7.05;;;3.20;;
64387;SDS011;50709;52.648;4.764;2023-07-31T00:53:34;8.20;;;2.70;;
64387;SDS011;50709;52.648;4.764;2023-07-31T00:56:00;9.82;;;3.03;;
64387;SDS011;50709;52.648;4.764;2023-07-31T00:58:25;6.35;;;2.70;;
64387;SDS011;50709;52.648;4.764;2023-07-31T01:00:50;8.68;;;2.88;;
64387;SDS011;50709;52.648;4.764;2023-07-31T01:03:16;4.88;;;2.40;;
64387;SDS011;50709;52.648;4.764;2023-07-31T01:05:43;9.70;;;3.20;;
64387;SDS011;50709;52.648;4.764;2023-07-31T01:08:37;8.30;;;2.80;;
64387;SDS011;50709;52.648;4.764;2023-07-31T01:11:12;5.70;;;2.67;;
64387;SDS011;50709;52.648;4.764;2023-07-31T01:13:42;8.67;;;2.60;;
64387;SDS011;50709;52.648;4.764;2023-07-31T01:16:12;6.28;;;2.90;;
64387;SDS011;50709;52.648;4.764;2023-07-31T01:18:37;9.35;;;3.55;;
64387;SDS011;50709;52.648;4.764;2023-07-31T01:26:57;8.30;;;3.05;;
64387;SDS011;50709;52.648;4.764;2023-07-31T01:32:08;10.27;;;4.07;;
64387;SDS011;50709;52.648;4.764;2023-07-31T01:34:35;11.57;;;4.18;;
64387;SDS011;50709;52.648;4.764;2023-07-31T01:37:02;8.32;;;3.50;;
64387;SDS011;50709;52.648;4.764;2023-07-31T01:39:28;7.75;;;3.03;;
64387;SDS011;50709;52.648;4.764;2023-07-31T01:41:53;6.50;;;3.28;;
64387;SDS011;50709;52.648;4.764;2023-07-31T01:44:18;11.90;;;4.13;;
64387;SDS011;50709;52.648;4.764;2023-07-31T01:46:44;8.00;;;3.10;;
64387;SDS011;50709;52.648;4.764;2023-07-31T01:49:09;10.93;;;3.85;;
64387;SDS011;50709;52.648;4.764;2023-07-31T01:51:35;7.68;;;3.25;;
64387;SDS011;50709;52.648;4.764;2023-07-31T01:54:00;9.93;;;3.20;;
64387;SDS011;50709;52.648;4.764;2023-07-31T01:56:26;9.10;;;3.50;;
64387;SDS011;50709;52.648;4.764;2023-07-31T01:58:52;12.02;;;3.60;;
64387;SDS011;50709;52.648;4.764;2023-07-31T02:01:17;12.77;;;3.83;;
64387;SDS011;50709;52.648;4.764;2023-07-31T02:03:43;11.40;;;3.70;;
64387;SDS011;50709;52.648;4.764;2023-07-31T02:06:08;10.05;;;3.80;;
64387;SDS011;50709;52.648;4.764;2023-07-31T02:08:34;8.48;;;3.85;;
64387;SDS011;50709;52.648;4.764;2023-07-31T02:10:59;9.90;;;3.65;;
64387;SDS011;50709;52.648;4.764;2023-07-31T02:13:24;11.38;;;3.85;;
64387;SDS011;50709;52.648;4.764;2023-07-31T02:15:50;9.75;;;3.85;;
64387;SDS011;50709;52.648;4.764;2023-07-31T02:18:15;9.68;;;4.00;;
64387;SDS011;50709;52.648;4.764;2023-07-31T02:20:41;13.07;;;4.63;;
64387;SDS011;50709;52.648;4.764;2023-07-31T02:23:06;10.02;;;4.15;;
64387;SDS011;50709;52.648;4.764;2023-07-31T02:25:32;9.73;;;3.60;;
64387;SDS011;50709;52.648;4.764;2023-07-31T02:27:57;14.13;;;4.30;;
64387;SDS011;50709;52.648;4.764;2023-07-31T02:30:23;12.80;;;4.30;;
64387;SDS011;50709;52.648;4.764;2023-07-31T02:32:48;13.63;;;4.60;;
64387;SDS011;50709;52.648;4.764;2023-07-31T02:35:14;11.00;;;3.95;;
64387;SDS011;50709;52.648;4.764;2023-07-31T02:37:41;9.57;;;4.25;;
64387;SDS011;50709;52.648;4.764;2023-07-31T02:40:07;8.10;;;3.75;;
64387;SDS011;50709;52.648;4.764;2023-07-31T02:42:35;10.60;;;4.05;;
64387;SDS011;50709;52.648;4.764;2023-07-31T02:45:00;16.55;;;5.78;;
64387;SDS011;50709;52.648;4.764;2023-07-31T02:47:26;12.68;;;4.57;;
64387;SDS011;50709;52.648;4.764;2023-07-31T02:49:51;18.83;;;5.88;;
64387;SDS011;50709;52.648;4.764;2023-07-31T02:52:16;13.68;;;4.88;;
64387;SDS011;50709;52.648;4.764;2023-07-31T02:54:42;15.20;;;4.55;;
64387;SDS011;50709;52.648;4.764;2023-07-31T02:57:07;14.98;;;4.28;;
64387;SDS011;50709;52.648;4.764;2023-07-31T02:59:33;14.82;;;5.00;;
64387;SDS011;50709;52.648;4.764;2023-07-31T03:01:58;13.95;;;4.70;;
64387;SDS011;50709;52.648;4.764;2023-07-31T03:04:23;11.98;;;5.05;;
64387;SDS011;50709;52.648;4.764;2023-07-31T03:06:49;14.27;;;4.30;;
64387;SDS011;50709;52.648;4.764;2023-07-31T03:09:14;11.80;;;4.60;;
64387;SDS011;50709;52.648;4.764;2023-07-31T03:11:39;16.13;;;4.80;;
64387;SDS011;50709;52.648;4.764;2023-07-31T03:14:05;13.52;;;4.45;;
64387;SDS011;50709;52.648;4.764;2023-07-31T03:16:30;12.85;;;4.45;;
64387;SDS011;50709;52.648;4.764;2023-07-31T03:18:55;14.18;;;4.85;;
64387;SDS011;50709;52.648;4.764;2023-07-31T03:21:21;12.77;;;4.85;;
64387;SDS011;50709;52.648;4.764;2023-07-31T03:23:46;15.43;;;4.53;;
64387;SDS011;50709;52.648;4.764;2023-07-31T03:26:12;17.92;;;6.03;;
64387;SDS011;50709;52.648;4.764;2023-07-31T03:28:37;11.70;;;5.25;;
64387;SDS011;50709;52.648;4.764;2023-07-31T03:31:03;12.90;;;4.90;;
64387;SDS011;50709;52.648;4.764;2023-07-31T03:33:28;13.77;;;4.63;;
64387;SDS011;50709;52.648;4.764;2023-07-31T03:35:53;16.73;;;4.53;;
64387;SDS011;50709;52.648;4.764;2023-07-31T03:38:19;13.98;;;4.35;;
64387;SDS011;50709;52.648;4.764;2023-07-31T03:40:44;15.45;;;4.50;;
64387;SDS011;50709;52.648;4.764;2023-07-31T03:43:10;13.95;;;4.45;;
64387;SDS011;50709;52.648;4.764;2023-07-31T03:45:36;10.90;;;4.13;;
64387;SDS011;50709;52.648;4.764;2023-07-31T03:48:02;13.48;;;4.95;;
64387;SDS011;50709;52.648;4.764;2023-07-31T03:50:28;15.15;;;4.45;;
64387;SDS011;50709;52.648;4.764;2023-07-31T03:52:54;13.50;;;4.50;;
64387;SDS011;50709;52.648;4.764;2023-07-31T03:55:19;16.17;;;4.50;;
64387;SDS011;50709;52.648;4.764;2023-07-31T03:57:45;13.07;;;4.40;;
64387;SDS011;50709;52.648;4.764;2023-07-31T04:00:10;16.70;;;4.47;;
64387;SDS011;50709;52.648;4.764;2023-07-31T04:02:36;14.73;;;5.20;;
64387;SDS011;50709;52.648;4.764;2023-07-31T04:05:01;9.23;;;3.92;;
64387;SDS011;50709;52.648;4.764;2023-07-31T04:07:27;11.48;;;4.25;;
64387;SDS011;50709;52.648;4.764;2023-07-31T04:09:52;11.57;;;4.13;;
64387;SDS011;50709;52.648;4.764;2023-07-31T04:12:18;11.48;;;4.60;;
64387;SDS011;50709;52.648;4.764;2023-07-31T04:14:43;11.98;;;4.43;;
64387;SDS011;50709;52.648;4.764;2023-07-31T04:17:08;14.18;;;4.30;;
64387;SDS011;50709;52.648;4.764;2023-07-31T04:19:34;14.38;;;4.72;;
64387;SDS011;50709;52.648;4.764;2023-07-31T04:21:59;9.30;;;3.95;;
64387;SDS011;50709;52.648;4.764;2023-07-31T04:24:25;9.50;;;4.07;;
64387;SDS011;50709;52.648;4.764;2023-07-31T04:26:50;15.27;;;4.40;;
64387;SDS011;50709;52.648;4.764;2023-07-31T04:29:17;11.15;;;3.97;;
64387;SDS011;50709;52.648;4.764;2023-07-31T04:31:42;10.00;;;4.53;;
64387;SDS011;50709;52.648;4.764;2023-07-31T04:34:07;12.40;;;4.32;;
64387;SDS011;50709;52.648;4.764;2023-07-31T04:36:33;7.93;;;3.55;;
64387;SDS011;50709;52.648;4.764;2023-07-31T04:38:59;10.88;;;3.97;;
64387;SDS011;50709;52.648;4.764;2023-07-31T04:41:25;10.60;;;4.38;;
64387;SDS011;50709;52.648;4.764;2023-07-31T04:43:50;12.40;;;5.03;;
64387;SDS011;50709;52.648;4.764;2023-07-31T04:46:15;13.20;;;4.93;;
64387;SDS011;50709;52.648;4.764;2023-07-31T04:48:41;12.98;;;5.03;;
64387;SDS011;50709;52.648;4.764;2023-07-31T04:51:06;8.25;;;3.80;;
64387;SDS011;50709;52.648;4.764;2023-07-31T04:53:51;8.27;;;3.58;;
64387;SDS011;50709;52.648;4.764;2023-07-31T04:56:17;9.95;;;3.70;;
64387;SDS011;50709;52.648;4.764;2023-07-31T04:58:42;8.68;;;3.65;;
64387;SDS011;50709;52.648;4.764;2023-07-31T05:01:07;6.20;;;2.92;;
64387;SDS011;50709;52.648;4.764;2023-07-31T05:03:33;7.53;;;2.88;;
64387;SDS011;50709;52.648;4.764;2023-07-31T05:05:59;7.50;;;3.53;;
64387;SDS011;50709;52.648;4.764;2023-07-31T05:08:24;6.90;;;2.90;;
64387;SDS011;50709;52.648;4.764;2023-07-31T05:10:50;6.95;;;2.78;;
64387;SDS011;50709;52.648;4.764;2023-07-31T05:13:15;6.68;;;2.85;;
64387;SDS011;50709;52.648;4.764;2023-07-31T05:15:41;7.10;;;2.70;;
64387;SDS011;50709;52.648;4.764;2023-07-31T05:18:06;6.57;;;2.72;;
64387;SDS011;50709;52.648;4.764;2023-07-31T05:20:31;5.63;;;2.50;;
64387;SDS011;50709;52.648;4.764;2023-07-31T05:22:57;7.03;;;2.40;;
64387;SDS011;50709;52.648;4.764;2023-07-31T05:25:22;4.45;;;2.30;;
64387;SDS011;50709;52.648;4.764;2023-07-31T05:27:48;5.43;;;2.00;;
64387;SDS011;50709;52.648;4.764;2023-07-31T05:30:13;5.60;;;2.58;;
64387;SDS011;50709;52.648;4.764;2023-07-31T05:32:38;6.47;;;2.13;;
64387;SDS011;50709;52.648;4.764;2023-07-31T05:35:04;7.10;;;2.40;;
64387;SDS011;50709;52.648;4.764;2023-07-31T05:37:31;5.35;;;2.28;;
64387;SDS011;50709;52.648;4.764;2023-07-31T05:40:17;5.22;;;1.90;;
64387;SDS011;50709;52.648;4.764;2023-07-31T05:42:42;4.70;;;1.83;;
64387;SDS011;50709;52.648;4.764;2023-07-31T05:45:08;6.78;;;2.10;;
64387;SDS011;50709;52.648;4.764;2023-07-31T05:47:33;5.13;;;2.20;;
64387;SDS011;50709;52.648;4.764;2023-07-31T05:50:01;4.38;;;1.65;;
64387;SDS011;50709;52.648;4.764;2023-07-31T05:52:27;6.43;;;1.80;;
64387;SDS011;50709;52.648;4.764;2023-07-31T05:54:54;5.75;;;1.98;;
64387;SDS011;50709;52.648;4.764;2023-07-31T05:57:19;6.80;;;1.85;;
64387;SDS011;50709;52.648;4.764;2023-07-31T05:59:45;4.15;;;1.50;;
64387;SDS011;50709;52.648;4.764;2023-07-31T06:02:10;8.63;;;2.00;;
64387;SDS011;50709;52.648;4.764;2023-07-31T06:04:36;3.70;;;2.30;;
64387;SDS011;50709;52.648;4.764;2023-07-31T06:07:01;6.20;;;1.98;;
64387;SDS011;50709;52.648;4.764;2023-07-31T06:09:27;8.55;;;2.40;;
64387;SDS011;50709;52.648;4.764;2023-07-31T06:11:53;8.02;;;2.38;;
64387;SDS011;50709;52.648;4.764;2023-07-31T06:14:18;4.82;;;2.25;;
64387;SDS011;50709;52.648;4.764;2023-07-31T06:16:44;7.80;;;2.15;;
64387;SDS011;50709;52.648;4.764;2023-07-31T06:19:09;6.85;;;2.75;;
64387;SDS011;50709;52.648;4.764;2023-07-31T06:21:35;6.57;;;2.45;;
64387;SDS011;50709;52.648;4.764;2023-07-31T06:24:02;7.15;;;2.47;;
64387;SDS011;50709;52.648;4.764;2023-07-31T06:26:28;9.25;;;2.50;;
64387;SDS011;50709;52.648;4.764;2023-07-31T06:28:53;6.07;;;2.38;;
64387;SDS011;50709;52.648;4.764;2023-07-31T06:31:19;6.75;;;2.50;;
64387;SDS011;50709;52.648;4.764;2023-07-31T06:33:47;6.28;;;2.60;;
64387;SDS011;50709;52.648;4.764;2023-07-31T06:36:13;8.55;;;2.58;;
64387;SDS011;50709;52.648;4.764;2023-07-31T06:38:38;5.70;;;2.45;;
64387;SDS011;50709;52.648;4.764;2023-07-31T06:41:04;10.38;;;2.72;;
64387;SDS011;50709;52.648;4.764;2023-07-31T06:43:29;7.00;;;2.38;;
64387;SDS011;50709;52.648;4.764;2023-07-31T06:45:55;4.00;;;2.08;;
64387;SDS011;50709;52.648;4.764;2023-07-31T06:48:20;5.97;;;2.50;;
64387;SDS011;50709;52.648;4.764;2023-07-31T06:50:46;8.10;;;2.50;;
64387;SDS011;50709;52.648;4.764;2023-07-31T06:53:11;7.80;;;2.50;;
64387;SDS011;50709;52.648;4.764;2023-07-31T06:55:36;6.40;;;2.53;;
64387;SDS011;50709;52.648;4.764;2023-07-31T06:58:02;7.82;;;2.63;;
64387;SDS011;50709;52.648;4.764;2023-07-31T07:00:27;9.20;;;2.40;;
64387;SDS011;50709;52.648;4.764;2023-07-31T07:02:53;9.40;;;2.60;;
64387;SDS011;50709;52.648;4.764;2023-07-31T07:05:19;9.65;;;2.50;;
64387;SDS011;50709;52.648;4.764;2023-07-31T07:07:44;8.27;;;2.45;;
64387;SDS011;50709;52.648;4.764;2023-07-31T07:10:10;7.57;;;2.60;;
64387;SDS011;50709;52.648;4.764;2023-07-31T07:12:36;7.38;;;2.42;;
64387;SDS011;50709;52.648;4.764;2023-07-31T07:15:01;9.05;;;1.98;;
64387;SDS011;50709;52.648;4.764;2023-07-31T07:17:28;6.32;;;2.40;;
64387;SDS011;50709;52.648;4.764;2023-07-31T07:19:57;7.15;;;2.55;;
64387;SDS011;50709;52.648;4.764;2023-07-31T07:22:23;9.13;;;2.80;;
64387;SDS011;50709;52.648;4.764;2023-07-31T07:24:49;7.18;;;2.50;;
64387;SDS011;50709;52.648;4.764;2023-07-31T07:27:14;6.35;;;1.95;;
64387;SDS011;50709;52.648;4.764;2023-07-31T07:29:39;5.43;;;2.33;;
64387;SDS011;50709;52.648;4.764;2023-07-31T07:32:05;7.60;;;2.38;;
64387;SDS011;50709;52.648;4.764;2023-07-31T07:34:30;5.32;;;1.80;;
64387;SDS011;50709;52.648;4.764;2023-07-31T07:36:56;5.35;;;2.00;;
64387;SDS011;50709;52.648;4.764;2023-07-31T07:39:21;5.57;;;2.33;;
64387;SDS011;50709;52.648;4.764;2023-07-31T07:41:47;5.70;;;1.77;;
64387;SDS011;50709;52.648;4.764;2023-07-31T07:44:12;6.93;;;2.00;;
64387;SDS011;50709;52.648;4.764;2023-07-31T07:46:39;8.18;;;2.20;;
64387;SDS011;50709;52.648;4.764;2023-07-31T07:49:04;7.15;;;2.15;;
64387;SDS011;50709;52.648;4.764;2023-07-31T07:51:30;7.13;;;2.13;;
64387;SDS011;50709;52.648;4.764;2023-07-31T07:53:57;8.40;;;2.50;;
64387;SDS011;50709;52.648;4.764;2023-07-31T07:56:23;7.93;;;2.03;;
64387;SDS011;50709;52.648;4.764;2023-07-31T07:58:50;8.70;;;2.15;;
64387;SDS011;50709;52.648;4.764;2023-07-31T08:01:16;6.75;;;2.30;;
64387;SDS011;50709;52.648;4.764;2023-07-31T08:03:41;8.45;;;2.40;;
64387;SDS011;50709;52.648;4.764;2023-07-31T08:06:06;8.15;;;2.20;;
64387;SDS011;50709;52.648;4.764;2023-07-31T08:08:35;11.18;;;2.75;;
64387;SDS011;50709;52.648;4.764;2023-07-31T08:11:01;6.13;;;2.22;;
64387;SDS011;50709;52.648;4.764;2023-07-31T08:13:27;5.93;;;2.10;;
64387;SDS011;50709;52.648;4.764;2023-07-31T08:15:52;9.50;;;2.33;;
64387;SDS011;50709;52.648;4.764;2023-07-31T08:18:18;7.20;;;2.92;;
64387;SDS011;50709;52.648;4.764;2023-07-31T08:20:44;7.50;;;2.45;;
64387;SDS011;50709;52.648;4.764;2023-07-31T08:23:09;6.78;;;2.25;;
64387;SDS011;50709;52.648;4.764;2023-07-31T08:25:35;5.63;;;2.78;;
64387;SDS011;50709;52.648;4.764;2023-07-31T08:28:01;6.70;;;2.28;;
64387;SDS011;50709;52.648;4.764;2023-07-31T08:30:27;8.30;;;2.30;;
64387;SDS011;50709;52.648;4.764;2023-07-31T08:32:53;7.53;;;2.47;;
64387;SDS011;50709;52.648;4.764;2023-07-31T08:35:18;8.23;;;2.50;;
64387;SDS011;50709;52.648;4.764;2023-07-31T08:37:44;9.65;;;2.33;;
64387;SDS011;50709;52.648;4.764;2023-07-31T08:40:09;6.72;;;2.40;;
64387;SDS011;50709;52.648;4.764;2023-07-31T08:42:42;6.95;;;2.30;;
64387;SDS011;50709;52.648;4.764;2023-07-31T08:45:15;6.60;;;2.83;;
64387;SDS011;50709;52.648;4.764;2023-07-31T08:50:12;8.68;;;2.50;;
64387;SDS011;50709;52.648;4.764;2023-07-31T08:52:39;6.78;;;2.42;;
64387;SDS011;50709;52.648;4.764;2023-07-31T08:55:05;9.65;;;2.33;;
64387;SDS011;50709;52.648;4.764;2023-07-31T08:57:31;6.28;;;2.35;;
64387;SDS011;50709;52.648;4.764;2023-07-31T08:59:59;7.75;;;2.30;;
64387;SDS011;50709;52.648;4.764;2023-07-31T09:02:26;9.00;;;2.80;;
64387;SDS011;50709;52.648;4.764;2023-07-31T09:05:01;8.20;;;2.80;;
64387;SDS011;50709;52.648;4.764;2023-07-31T09:07:27;7.15;;;2.38;;
64387;SDS011;50709;52.648;4.764;2023-07-31T09:09:54;11.85;;;2.78;;
64387;SDS011;50709;52.648;4.764;2023-07-31T09:12:19;8.88;;;2.60;;
64387;SDS011;50709;52.648;4.764;2023-07-31T09:14:45;10.32;;;3.78;;
64387;SDS011;50709;52.648;4.764;2023-07-31T09:17:12;9.50;;;2.63;;
64387;SDS011;50709;52.648;4.764;2023-07-31T09:19:37;6.78;;;3.20;;
64387;SDS011;50709;52.648;4.764;2023-07-31T09:22:03;7.55;;;2.90;;
64387;SDS011;50709;52.648;4.764;2023-07-31T09:24:31;8.65;;;3.10;;
64387;SDS011;50709;52.648;4.764;2023-07-31T09:26:57;8.55;;;2.97;;
64387;SDS011;50709;52.648;4.764;2023-07-31T09:29:25;5.85;;;2.25;;
64387;SDS011;50709;52.648;4.764;2023-07-31T09:31:51;10.32;;;2.72;;
64387;SDS011;50709;52.648;4.764;2023-07-31T09:34:18;9.43;;;2.58;;
64387;SDS011;50709;52.648;4.764;2023-07-31T09:36:45;11.63;;;2.50;;
64387;SDS011;50709;52.648;4.764;2023-07-31T09:39:15;10.40;;;3.00;;
64387;SDS011;50709;52.648;4.764;2023-07-31T09:41:42;10.15;;;2.40;;
64387;SDS011;50709;52.648;4.764;2023-07-31T09:44:09;9.80;;;2.60;;
64387;SDS011;50709;52.648;4.764;2023-07-31T09:46:35;7.45;;;2.70;;
64387;SDS011;50709;52.648;4.764;2023-07-31T09:49:08;8.65;;;2.85;;
64387;SDS011;50709;52.648;4.764;2023-07-31T09:51:34;7.55;;;2.90;;
64387;SDS011;50709;52.648;4.764;2023-07-31T09:54:03;7.32;;;2.63;;
64387;SDS011;50709;52.648;4.764;2023-07-31T09:56:45;9.10;;;2.22;;
64387;SDS011;50709;52.648;4.764;2023-07-31T09:59:13;5.53;;;2.72;;
64387;SDS011;50709;52.648;4.764;2023-07-31T10:01:40;10.88;;;2.78;;
64387;SDS011;50709;52.648;4.764;2023-07-31T10:04:10;11.05;;;2.72;;
64387;SDS011;50709;52.648;4.764;2023-07-31T10:06:36;5.47;;;2.58;;
64387;SDS011;50709;52.648;4.764;2023-07-31T10:09:05;7.78;;;2.25;;
64387;SDS011;50709;52.648;4.764;2023-07-31T10:11:34;8.27;;;2.30;;
64387;SDS011;50709;52.648;4.764;2023-07-31T10:14:03;9.18;;;2.63;;
64387;SDS011;50709;52.648;4.764;2023-07-31T10:16:31;7.15;;;2.58;;
64387;SDS011;50709;52.648;4.764;2023-07-31T10:18:56;5.65;;;2.15;;
64387;SDS011;50709;52.648;4.764;2023-07-31T10:21:23;6.15;;;2.25;;
64387;SDS011;50709;52.648;4.764;2023-07-31T10:23:49;5.57;;;2.25;;
64387;SDS011;50709;52.648;4.764;2023-07-31T10:26:17;8.73;;;2.42;;
64387;SDS011;50709;52.648;4.764;2023-07-31T10:28:44;12.50;;;2.55;;
64387;SDS011;50709;52.648;4.764;2023-07-31T10:31:11;8.90;;;2.60;;
64387;SDS011;50709;52.648;4.764;2023-07-31T10:33:38;11.27;;;2.53;;
64387;SDS011;50709;52.648;4.764;2023-07-31T10:36:14;10.32;;;2.67;;
64387;SDS011;50709;52.648;4.764;2023-07-31T10:38:42;9.07;;;2.58;;
64387;SDS011;50709;52.648;4.764;2023-07-31T10:41:11;8.45;;;2.78;;
64387;SDS011;50709;52.648;4.764;2023-07-31T10:43:36;7.07;;;2.55;;
64387;SDS011;50709;52.648;4.764;2023-07-31T10:46:06;5.30;;;2.85;;
64387;SDS011;50709;52.648;4.764;2023-07-31T10:48:33;7.20;;;2.88;;
64387;SDS011;50709;52.648;4.764;2023-07-31T10:50:59;5.70;;;2.17;;
64387;SDS011;50709;52.648;4.764;2023-07-31T10:53:34;5.38;;;2.22;;
64387;SDS011;50709;52.648;4.764;2023-07-31T10:55:59;8.02;;;2.55;;
64387;SDS011;50709;52.648;4.764;2023-07-31T10:58:29;10.00;;;2.97;;
64387;SDS011;50709;52.648;4.764;2023-07-31T11:00:57;6.85;;;2.30;;
64387;SDS011;50709;52.648;4.764;2023-07-31T11:03:25;11.45;;;3.15;;
64387;SDS011;50709;52.648;4.764;2023-07-31T11:08:28;7.07;;;2.75;;
64387;SDS011;50709;52.648;4.764;2023-07-31T11:11:19;9.57;;;2.85;;
64387;SDS011;50709;52.648;4.764;2023-07-31T11:13:45;9.40;;;3.05;;
64387;SDS011;50709;52.648;4.764;2023-07-31T11:16:15;7.38;;;2.80;;
64387;SDS011;50709;52.648;4.764;2023-07-31T11:18:42;8.63;;;3.17;;
64387;SDS011;50709;52.648;4.764;2023-07-31T11:21:11;8.88;;;2.40;;
64387;SDS011;50709;52.648;4.764;2023-07-31T11:23:38;7.88;;;3.03;;
64387;SDS011;50709;52.648;4.764;2023-07-31T11:26:04;6.38;;;2.50;;
64387;SDS011;50709;52.648;4.764;2023-07-31T11:28:32;7.13;;;2.28;;
64387;SDS011;50709;52.648;4.764;2023-07-31T11:31:00;6.55;;;2.40;;
64387;SDS011;50709;52.648;4.764;2023-07-31T11:33:26;7.78;;;2.95;;
64387;SDS011;50709;52.648;4.764;2023-07-31T11:35:52;10.23;;;3.25;;
64387;SDS011;50709;52.648;4.764;2023-07-31T11:38:24;7.22;;;2.42;;
64387;SDS011;50709;52.648;4.764;2023-07-31T11:40:55;9.02;;;2.83;;
64387;SDS011;50709;52.648;4.764;2023-07-31T11:43:25;13.27;;;3.60;;
64387;SDS011;50709;52.648;4.764;2023-07-31T11:45:52;10.68;;;2.95;;
64387;SDS011;50709;52.648;4.764;2023-07-31T11:50:47;8.82;;;3.03;;
64387;SDS011;50709;52.648;4.764;2023-07-31T11:53:14;10.63;;;3.53;;
64387;SDS011;50709;52.648;4.764;2023-07-31T11:55:42;9.93;;;3.38;;
64387;SDS011;50709;52.648;4.764;2023-07-31T11:58:07;9.23;;;2.70;;
64387;SDS011;50709;52.648;4.764;2023-07-31T12:00:33;13.68;;;3.17;;
64387;SDS011;50709;52.648;4.764;2023-07-31T12:02:59;8.23;;;2.63;;
64387;SDS011;50709;52.648;4.764;2023-07-31T12:05:25;13.55;;;2.75;;
64387;SDS011;50709;52.648;4.764;2023-07-31T12:07:52;9.88;;;2.95;;
64387;SDS011;50709;52.648;4.764;2023-07-31T12:10:26;8.82;;;3.08;;
64387;SDS011;50709;52.648;4.764;2023-07-31T12:13:11;12.50;;;4.45;;
64387;SDS011;50709;52.648;4.764;2023-07-31T12:15:45;9.75;;;2.67;;
64387;SDS011;50709;52.648;4.764;2023-07-31T12:18:12;7.85;;;2.95;;
64387;SDS011;50709;52.648;4.764;2023-07-31T12:20:55;8.07;;;2.63;;
64387;SDS011;50709;52.648;4.764;2023-07-31T12:23:28;9.63;;;2.97;;
64387;SDS011;50709;52.648;4.764;2023-07-31T12:28:43;9.27;;;2.90;;
64387;SDS011;50709;52.648;4.764;2023-07-31T12:31:09;11.13;;;3.05;;
64387;SDS011;50709;52.648;4.764;2023-07-31T12:33:37;5.93;;;2.90;;
64387;SDS011;50709;52.648;4.764;2023-07-31T12:36:05;10.95;;;3.20;;
64387;SDS011;50709;52.648;4.764;2023-07-31T12:38:33;8.05;;;2.90;;
64387;SDS011;50709;52.648;4.764;2023-07-31T12:40:58;7.10;;;2.50;;
64387;SDS011;50709;52.648;4.764;2023-07-31T12:43:24;8.27;;;2.80;;
64387;SDS011;50709;52.648;4.764;2023-07-31T12:45:49;8.80;;;2.63;;
64387;SDS011;50709;52.648;4.764;2023-07-31T12:48:14;8.05;;;2.45;;
64387;SDS011;50709;52.648;4.764;2023-07-31T12:50:40;7.95;;;2.60;;
64387;SDS011;50709;52.648;4.764;2023-07-31T12:53:05;5.55;;;2.60;;
64387;SDS011;50709;52.648;4.764;2023-07-31T12:55:31;10.27;;;3.25;;
64387;SDS011;50709;52.648;4.764;2023-07-31T12:58:00;11.65;;;3.03;;
64387;SDS011;50709;52.648;4.764;2023-07-31T13:00:26;8.73;;;2.60;;
64387;SDS011;50709;52.648;4.764;2023-07-31T13:02:52;9.75;;;3.53;;
64387;SDS011;50709;52.648;4.764;2023-07-31T13:05:17;8.32;;;2.45;;
64387;SDS011;50709;52.648;4.764;2023-07-31T13:07:45;8.65;;;2.55;;
64387;SDS011;50709;52.648;4.764;2023-07-31T13:10:10;8.68;;;2.85;;
64387;SDS011;50709;52.648;4.764;2023-07-31T13:12:36;9.43;;;3.38;;
64387;SDS011;50709;52.648;4.764;2023-07-31T13:15:02;7.03;;;3.08;;
64387;SDS011;50709;52.648;4.764;2023-07-31T13:17:28;5.88;;;2.70;;
64387;SDS011;50709;52.648;4.764;2023-07-31T13:19:53;7.18;;;2.80;;
64387;SDS011;50709;52.648;4.764;2023-07-31T13:22:19;6.55;;;2.35;;
64387;SDS011;50709;52.648;4.764;2023-07-31T13:24:44;5.43;;;2.35;;
64387;SDS011;50709;52.648;4.764;2023-07-31T13:27:10;4.40;;;2.58;;
64387;SDS011;50709;52.648;4.764;2023-07-31T13:29:35;7.15;;;2.50;;
64387;SDS011;50709;52.648;4.764;2023-07-31T13:32:01;6.18;;;2.47;;
64387;SDS011;50709;52.648;4.764;2023-07-31T13:34:26;7.20;;;2.72;;
64387;SDS011;50709;52.648;4.764;2023-07-31T13:36:53;5.43;;;2.42;;
64387;SDS011;50709;52.648;4.764;2023-07-31T13:39:19;5.82;;;2.30;;
64387;SDS011;50709;52.648;4.764;2023-07-31T13:41:45;6.95;;;2.63;;
64387;SDS011;50709;52.648;4.764;2023-07-31T13:44:10;6.05;;;2.45;;
64387;SDS011;50709;52.648;4.764;2023-07-31T13:46:35;7.65;;;2.70;;
64387;SDS011;50709;52.648;4.764;2023-07-31T13:49:01;5.88;;;2.40;;
64387;SDS011;50709;52.648;4.764;2023-07-31T13:51:26;7.22;;;2.22;;
64387;SDS011;50709;52.648;4.764;2023-07-31T13:53:53;5.15;;;2.40;;
64387;SDS011;50709;52.648;4.764;2023-07-31T13:56:18;5.53;;;2.28;;
64387;SDS011;50709;52.648;4.764;2023-07-31T13:58:43;8.25;;;2.42;;
64387;SDS011;50709;52.648;4.764;2023-07-31T14:01:09;7.30;;;2.38;;
64387;SDS011;50709;52.648;4.764;2023-07-31T14:03:34;6.55;;;2.00;;
64387;SDS011;50709;52.648;4.764;2023-07-31T14:05:59;6.68;;;2.25;;
64387;SDS011;50709;52.648;4.764;2023-07-31T14:08:25;5.43;;;2.15;;
64387;SDS011;50709;52.648;4.764;2023-07-31T14:10:50;8.85;;;2.10;;
64387;SDS011;50709;52.648;4.764;2023-07-31T14:13:16;6.30;;;2.20;;
64387;SDS011;50709;52.648;4.764;2023-07-31T14:15:42;6.57;;;2.10;;
64387;SDS011;50709;52.648;4.764;2023-07-31T14:18:08;6.13;;;2.10;;
64387;SDS011;50709;52.648;4.764;2023-07-31T14:20:34;5.18;;;2.03;;
64387;SDS011;50709;52.648;4.764;2023-07-31T14:22:59;4.50;;;2.00;;
64387;SDS011;50709;52.648;4.764;2023-07-31T14:25:24;7.30;;;2.63;;
64387;SDS011;50709;52.648;4.764;2023-07-31T14:27:50;6.25;;;2.80;;
64387;SDS011;50709;52.648;4.764;2023-07-31T14:30:15;5.88;;;2.25;;
64387;SDS011;50709;52.648;4.764;2023-07-31T14:32:42;5.82;;;2.17;;
64387;SDS011;50709;52.648;4.764;2023-07-31T14:35:07;5.95;;;2.50;;
64387;SDS011;50709;52.648;4.764;2023-07-31T14:37:37;6.63;;;2.45;;
64387;SDS011;50709;52.648;4.764;2023-07-31T14:40:05;6.57;;;2.58;;
64387;SDS011;50709;52.648;4.764;2023-07-31T14:42:31;6.65;;;2.28;;
64387;SDS011;50709;52.648;4.764;2023-07-31T14:44:57;7.45;;;3.00;;
64387;SDS011;50709;52.648;4.764;2023-07-31T14:47:22;9.23;;;2.78;;
64387;SDS011;50709;52.648;4.764;2023-07-31T14:49:48;6.00;;;2.70;;
64387;SDS011;50709;52.648;4.764;2023-07-31T14:52:13;8.05;;;2.60;;
64387;SDS011;50709;52.648;4.764;2023-07-31T14:54:38;6.32;;;2.90;;
64387;SDS011;50709;52.648;4.764;2023-07-31T14:57:04;7.38;;;2.67;;
64387;SDS011;50709;52.648;4.764;2023-07-31T14:59:29;8.15;;;2.70;;